Airfield :
LOGIN :

Register | Disclaimer

   EN    FR    IT 

 










Legend :    VFR   Marginal VFR   IFR   Intensive IFR   Very Intensive IFR
Visi :
Ceiling :
>= 8 km
>= 3000ft
5 to 8 km
1000 to 3000 ft
1500m to 5 km
500 to 1000 ft
800 to 1500m
200 to 500 ft
< 800m
< 200 ft
Symbols :   Thunderstorms  Fog  Heavy snow  Heavy precipitations  Wind > 20 kt
SIGMETs :     Misc.  Thunderstorms  Icing  Turbulence  Mountain Waves  Volcanic Ashes







- Airport Elevation : 37 ft


EHVL - Vlieland Heliport

CURRENT METAR :
  • 100755Z AUTO 32028KT 9999 SCT027 BKN031 BKN036 07/02 Q1018 BLU

EXPIRED METARs :
  • 100738Z AUTO 33025KT 9999 FEW015CB SCT031 BKN037 07/03 Q1017 BLU
  • 100734Z AUTO 32026KT 9999 FEW015CB SCT024 BKN034 07/03 Q1017 WHT
  • 100725Z AUTO 33026KT 9999 FEW015CB 06/03 Q1017 BLU
  • 100712Z AUTO 31030KT 9000 HZ FEW019 SCT023 BKN027 07/03 Q1017 WHT
  • 100655Z AUTO 31026KT 9999 FEW030 SCT042 07/03 Q1017 REDZ BLU
  • 100625Z AUTO 32027KT 9999 FEW055 SCT061 07/02 Q1017 BLU
  • 100602Z AUTO 32028G39KT 9999 -RA FEW021 SCT029 BKN033 06/03 Q1017 BLU
  • 100555Z AUTO 31026KT 9999 -RA FEW015CB SCT041 BKN067 07/03 Q1017 BLU
  • 100525Z AUTO 31024KT 9999 FEW022 07/03 Q1017 BLU

Expired Forecast.
No reported NOTAMs for that airfield.



MET'MAP, your aeronautical weather chart ! - Copyright ORBIFLY December 2007 - Disclaimer

ORBIFLY MET'MAP TEAM :

Programming & Development : Alexandra Zaïnal
Concept & Development : Baudouin d'Aumeries
Co-Development & Prog : Marc-Olivier Méhu
Technical & hardware support : Manuel Goepfert

Contact : metmap@orbifly.com




SOURCES & CREDITS :

   NOAA